Time;durP1;ratioP1;P1;durP2;ratioP2;P2;SDS_P1;SDS_P2;PMS_P1;PMS_P2;Temp;Humidity;BMP_temperature;BMP_pressure;BME280_temperature;BME280_humidity;BME280_pressure;Samples;Min_cycle;Max_cycle;Signal;HPM_P1;HPM_P2
2021/08/13 00:00:07;;;;;;;12.9;10.1;;;;;;;12.98;100;99244.73;;;;
2021/08/13 00:10:06;;;;;;;13.4;11;;;;;;;12.87;100;99219.82;;;;
2021/08/13 00:20:05;;;;;;;10.3;8.8;;;;;;;12.73;100;99240.7;;;;
2021/08/13 00:30:04;;;;;;;13.2;10.7;;;;;;;12.61;100;99249.34;;;;
2021/08/13 00:40:03;;;;;;;13.4;11.4;;;;;;;12.52;100;99244.97;;;;
2021/08/13 00:50:02;;;;;;;19.1;12.7;;;;;;;12.45;100;99244.58;;;;
2021/08/13 01:00:01;;;;;;;17.8;10.9;;;;;;;12.37;100;99243.38;;;;
2021/08/13 01:10:00;;;;;;;17.4;11.6;;;;;;;12.27;100;99234.69;;;;
2021/08/13 01:20:00;;;;;;;13.4;10.4;;;;;;;12.2;100;99239.7;;;;
2021/08/13 01:29:59;;;;;;;15.8;11.8;;;;;;;12.11;100;99242.33;;;;
2021/08/13 01:39:59;;;;;;;18.9;14.3;;;;;;;12.03;100;99230.31;;;;
2021/08/13 01:49:57;;;;;;;14.4;12.6;;;;;;;12.05;100;99241.61;;;;
2021/08/13 01:59:56;;;;;;;13.5;11.3;;;;;;;11.91;100;99243.5;;;;
2021/08/13 02:09:55;;;;;;;13.3;11.7;;;;;;;11.79;100;99245.11;;;;
2021/08/13 02:19:56;;;;;;;16.9;13.1;;;;;;;11.76;100;99243.81;;;;
2021/08/13 02:29:52;;;;;;;13.5;11.5;;;;;;;11.66;100;99257.48;;;;
2021/08/13 02:39:54;;;;;;;17.9;13.3;;;;;;;11.58;100;99241.95;;;;
2021/08/13 02:49:54;;;;;;;14.4;13;;;;;;;11.49;100;99231.03;;;;
2021/08/13 02:59:52;;;;;;;14.6;13.1;;;;;;;11.46;100;99247.02;;;;
2021/08/13 03:09:51;;;;;;;14.9;13.5;;;;;;;11.46;100;99245.13;;;;
2021/08/13 03:19:47;;;;;;;16.1;13.6;;;;;;;11.34;100;99238.61;;;;
2021/08/13 03:29:46;;;;;;;15.3;12.9;;;;;;;11.4;100;99229.31;;;;
2021/08/13 03:39:45;;;;;;;13.3;11.9;;;;;;;11.42;100;99238.71;;;;
2021/08/13 03:49:44;;;;;;;16.3;12.7;;;;;;;11.52;100;99237.75;;;;
2021/08/13 03:59:43;;;;;;;13.8;11.4;;;;;;;11.59;100;99244.34;;;;
2021/08/13 04:09:42;;;;;;;13.4;11.7;;;;;;;11.96;100;99246.13;;;;
2021/08/13 04:19:41;;;;;;;12.3;10.6;;;;;;;12.46;100;99228.03;;;;
2021/08/13 04:29:39;;;;;;;13.7;10.6;;;;;;;12.98;100;99233.91;;;;
2021/08/13 04:39:38;;;;;;;16.7;11.9;;;;;;;13.64;100;99237.69;;;;
2021/08/13 04:49:38;;;;;;;12.6;9;;;;;;;14.22;100;99243.64;;;;
2021/08/13 04:59:37;;;;;;;11.2;8.7;;;;;;;14.51;100;99252.02;;;;
2021/08/13 05:09:36;;;;;;;16.4;9.7;;;;;;;14.77;100;99270.25;;;;
2021/08/13 05:19:35;;;;;;;11.4;8.8;;;;;;;15.15;100;99270.41;;;;
2021/08/13 05:29:35;;;;;;;10.9;8.2;;;;;;;15.46;100;99276.45;;;;
2021/08/13 05:39:34;;;;;;;9.5;7.3;;;;;;;15.93;100;99280.81;;;;
2021/08/13 05:49:34;;;;;;;16;9.5;;;;;;;16.18;100;99273.67;;;;
2021/08/13 05:59:33;;;;;;;10.7;7.7;;;;;;;16.84;100;99280.19;;;;
2021/08/13 06:09:33;;;;;;;17.6;9.7;;;;;;;17.46;100;99274.69;;;;
2021/08/13 06:19:32;;;;;;;18.6;9;;;;;;;17.78;100;99273.1;;;;
2021/08/13 06:29:32;;;;;;;14.1;8.3;;;;;;;17.87;100;99283.92;;;;
2021/08/13 06:39:32;;;;;;;10.2;7.8;;;;;;;18.62;100;99287.95;;;;
2021/08/13 06:49:31;;;;;;;10.6;8.5;;;;;;;18.74;100;99287.95;;;;
2021/08/13 06:59:31;;;;;;;9.8;7.4;;;;;;;19.25;100;99274.59;;;;
2021/08/13 07:09:31;;;;;;;10.4;6.6;;;;;;;19.57;100;99271.63;;;;
2021/08/13 07:19:31;;;;;;;10.7;5.1;;;;;;;19.86;100;99264.14;;;;
2021/08/13 07:29:31;;;;;;;9.9;6;;;;;;;20.66;100;99274.7;;;;
2021/08/13 07:39:31;;;;;;;10.6;5.7;;;;;;;20.79;100;99279.7;;;;
2021/08/13 07:49:31;;;;;;;10.4;5.4;;;;;;;21.48;100;99272.55;;;;
2021/08/13 07:59:33;;;;;;;7;5.1;;;;;;;22.3;100;99272.84;;;;
2021/08/13 08:09:32;;;;;;;7.7;5;;;;;;;22.53;100;99278.28;;;;
2021/08/13 08:19:32;;;;;;;8.8;5.9;;;;;;;23.16;100;99269.36;;;;
2021/08/13 08:29:33;;;;;;;8.4;5.6;;;;;;;23.42;100;99280.33;;;;
2021/08/13 08:39:33;;;;;;;4.6;3.3;;;;;;;23.41;100;99289.74;;;;
2021/08/13 08:49:34;;;;;;;7.7;4;;;;;;;24.29;100;99300.88;;;;
2021/08/13 08:59:34;;;;;;;9.6;5.5;;;;;;;24.39;100;99292.7;;;;
2021/08/13 09:09:35;;;;;;;8.7;4.9;;;;;;;24.26;100;99302.41;;;;
2021/08/13 09:19:36;;;;;;;10.5;5.7;;;;;;;24.63;100;99296.02;;;;
2021/08/13 09:29:38;;;;;;;8.5;3.9;;;;;;;24.39;100;99291.91;;;;
2021/08/13 09:39:37;;;;;;;4.9;3.3;;;;;;;24.69;100;99300.78;;;;
2021/08/13 09:49:38;;;;;;;7.3;4.7;;;;;;;24.9;100;99298.19;;;;
2021/08/13 09:59:39;;;;;;;8.6;3.9;;;;;;;25.17;99.07813;99297.91;;;;
2021/08/13 10:09:40;;;;;;;5.3;3.7;;;;;;;24.9;98.46582;99298.19;;;;
2021/08/13 10:19:41;;;;;;;6.4;4.6;;;;;;;25.52;98.58789;99282.32;;;;
2021/08/13 10:29:41;;;;;;;6.8;4.7;;;;;;;25.77;82.00781;99284.34;;;;
2021/08/13 10:39:42;;;;;;;5.9;3.2;;;;;;;26.22;79.76563;99285.61;;;;
2021/08/13 10:49:43;;;;;;;6.8;2.9;;;;;;;26.37;78.54199;99273.38;;;;
2021/08/13 10:59:44;;;;;;;5.5;2.8;;;;;;;26.69;76.33887;99271.34;;;;
2021/08/13 11:09:45;;;;;;;6.6;2.9;;;;;;;26.91;80.05176;99259.07;;;;
2021/08/13 11:19:57;;;;;;;6;3.2;;;;;;;26.96;78.81934;99255.91;;;;
2021/08/13 11:29:47;;;;;;;5.7;3.7;;;;;;;27.16;86.67871;99242.38;;;;
2021/08/13 11:39:48;;;;;;;7;3.4;;;;;;;27.08;80.61816;99234.49;;;;
2021/08/13 11:49:49;;;;;;;7.3;3.6;;;;;;;27.38;77.62695;99237.53;;;;
2021/08/13 11:59:50;;;;;;;5.1;3.4;;;;;;;27.13;77.64258;99232.11;;;;
2021/08/13 12:09:51;;;;;;;6.2;3;;;;;;;27.49;82.17773;99227.22;;;;
2021/08/13 12:19:52;;;;;;;4.8;2.7;;;;;;;27.81;79.13086;99219.46;;;;
2021/08/13 12:29:53;;;;;;;8.6;4.9;;;;;;;27.86;77.18164;99216.27;;;;
2021/08/13 12:39:54;;;;;;;5.9;3.4;;;;;;;28;76.06543;99198.73;;;;
2021/08/13 12:49:56;;;;;;;6.9;3.9;;;;;;;28.21;77.42773;99193.03;;;;
2021/08/13 12:59:57;;;;;;;6.3;3.6;;;;;;;28.82;77.90918;99191.2;;;;
2021/08/13 13:09:58;;;;;;;6.5;3.9;;;;;;;28.73;77.29297;99185.38;;;;
2021/08/13 13:19:59;;;;;;;6.2;3.8;;;;;;;28.86;75.36328;99180.85;;;;
2021/08/13 13:30:00;;;;;;;8.5;4.5;;;;;;;28.86;77.50293;99171.73;;;;
2021/08/13 13:40:02;;;;;;;6.5;4.3;;;;;;;29.01;81.37207;99155.69;;;;
2021/08/13 13:50:03;;;;;;;7.4;4.2;;;;;;;29.08;76.21094;99155.59;;;;
2021/08/13 14:00:04;;;;;;;7.3;4;;;;;;;29.34;83.23047;99152.86;;;;
2021/08/13 14:10:06;;;;;;;8.7;4.5;;;;;;;29.3;75.49414;99137.44;;;;
2021/08/13 14:20:07;;;;;;;9.3;4.7;;;;;;;30.02;70.1123;99126.78;;;;
2021/08/13 14:30:08;;;;;;;10.7;4.5;;;;;;;30.42;69.38281;99129.2;;;;
2021/08/13 14:40:10;;;;;;;7.2;3.7;;;;;;;30.53;74.89551;99115.09;;;;
2021/08/13 14:50:11;;;;;;;4.9;3.6;;;;;;;30.49;71.43848;99111.59;;;;
2021/08/13 15:00:12;;;;;;;5.2;3.4;;;;;;;30.38;69.6123;99106.2;;;;
2021/08/13 15:10:14;;;;;;;9.3;4.7;;;;;;;30.62;70.54688;99106.16;;;;
2021/08/13 15:20:15;;;;;;;9;5;;;;;;;31.69;65.51563;99086.59;;;;
2021/08/13 15:30:17;;;;;;;7.4;4.4;;;;;;;34.23;53.82422;99099.66;;;;
2021/08/13 15:40:20;;;;;;;12.7;5.2;;;;;;;35.28;49.43945;99077.27;;;;
2021/08/13 15:50:21;;;;;;;6.4;4.3;;;;;;;35.6;48.67969;99085.19;;;;
2021/08/13 16:00:24;;;;;;;5.5;3.2;;;;;;;36.26;46.02441;99097.58;;;;
2021/08/13 16:10:25;;;;;;;6.6;3.4;;;;;;;36.64;44.57715;99082.25;;;;
2021/08/13 16:20:28;;;;;;;6.9;2.8;;;;;;;35.94;46.41504;99072.9;;;;
2021/08/13 16:30:30;;;;;;;8.6;3.1;;;;;;;32.55;57.52832;99055.17;;;;
2021/08/13 16:40:32;;;;;;;5.6;3.5;;;;;;;31.08;66.27051;99055.06;;;;
2021/08/13 16:50:34;;;;;;;7.3;3.9;;;;;;;29.67;72.41895;99042.81;;;;
2021/08/13 17:00:35;;;;;;;5.8;3.6;;;;;;;28.59;78.78613;99035.72;;;;
2021/08/13 17:10:36;;;;;;;6.5;4.6;;;;;;;27.92;82.36328;99048.38;;;;
2021/08/13 17:20:39;;;;;;;17.8;6.2;;;;;;;27.44;86.75488;99051.22;;;;
2021/08/13 17:30:39;;;;;;;9;6;;;;;;;26.45;94.6875;99057.33;;;;
2021/08/13 17:40:39;;;;;;;13.8;8.2;;;;;;;25.55;100;99059.14;;;;
2021/08/13 17:50:40;;;;;;;8.1;4.5;;;;;;;24.92;100;99064.17;;;;
2021/08/13 18:00:41;;;;;;;6.9;4.3;;;;;;;24.27;100;99055.27;;;;
2021/08/13 18:10:42;;;;;;;7.1;5.2;;;;;;;23.5;100;99059.89;;;;
2021/08/13 18:20:42;;;;;;;9.9;6;;;;;;;22.87;100;99065.58;;;;
2021/08/13 18:30:43;;;;;;;9.6;6.2;;;;;;;22.49;100;99065.94;;;;
2021/08/13 18:40:43;;;;;;;9.3;6;;;;;;;22.14;100;99060;;;;
2021/08/13 18:50:43;;;;;;;19.7;17.4;;;;;;;21.9;100;99058.5;;;;
2021/08/13 19:00:43;;;;;;;18.7;16.2;;;;;;;21.68;100;99051.08;;;;
2021/08/13 19:10:44;;;;;;;10.4;5.6;;;;;;;21.47;100;99049.6;;;;
2021/08/13 19:20:44;;;;;;;12.2;6.6;;;;;;;21.44;100;99055.03;;;;
2021/08/13 19:30:44;;;;;;;10.9;6;;;;;;;21.34;100;99042.73;;;;
2021/08/13 19:40:44;;;;;;;202.3;179.3;;;;;;;21.22;100;99058.56;;;;
2021/08/13 19:50:44;;;;;;;10.1;6.1;;;;;;;21.06;100;99048.51;;;;
2021/08/13 20:00:44;;;;;;;21;10;;;;;;;20.95;100;99053;;;;
2021/08/13 20:10:44;;;;;;;14;8.7;;;;;;;20.72;100;99052.16;;;;
2021/08/13 20:20:44;;;;;;;11.3;8.7;;;;;;;20.47;100;99064.61;;;;
2021/08/13 20:30:45;;;;;;;9.9;8.9;;;;;;;20.19;100;99067.53;;;;
2021/08/13 20:40:45;;;;;;;12.6;8.6;;;;;;;19.92;100;99069.27;;;;
2021/08/13 20:50:44;;;;;;;24.3;18.5;;;;;;;19.77;100;99058.38;;;;
2021/08/13 21:00:44;;;;;;;13.3;9.4;;;;;;;19.52;100;99064.07;;;;
2021/08/13 21:10:44;;;;;;;12.6;10;;;;;;;19.36;100;99052.34;;;;
2021/08/13 21:20:44;;;;;;;27.5;18.5;;;;;;;19.17;100;99051.44;;;;
2021/08/13 21:30:44;;;;;;;17.3;9.9;;;;;;;18.99;100;99048.26;;;;
2021/08/13 21:40:44;;;;;;;11.1;8.5;;;;;;;18.84;100;99041.66;;;;
2021/08/13 21:50:43;;;;;;;20;13;;;;;;;18.67;100;99033;;;;
2021/08/13 22:00:43;;;;;;;12.7;10.5;;;;;;;18.5;100;99051.26;;;;
2021/08/13 22:10:43;;;;;;;13.1;9.8;;;;;;;18.38;100;99039.58;;;;
2021/08/13 22:20:43;;;;;;;12.7;10.6;;;;;;;18.29;100;99036.22;;;;
2021/08/13 22:30:42;;;;;;;17.1;12.5;;;;;;;18.12;100;99026.36;;;;
2021/08/13 22:40:42;;;;;;;17;9.1;;;;;;;17.96;100;99023.58;;;;
2021/08/13 22:50:42;;;;;;;16.8;10.9;;;;;;;17.83;100;99029.41;;;;
2021/08/13 23:00:41;;;;;;;9.1;8.2;;;;;;;17.84;100;99039.95;;;;
2021/08/13 23:10:41;;;;;;;13;9.5;;;;;;;17.64;100;99031.92;;;;
2021/08/13 23:20:40;;;;;;;11.5;10.1;;;;;;;17.48;100;99048.16;;;;
2021/08/13 23:30:41;;;;;;;15;11.9;;;;;;;17.33;100;99040.66;;;;
2021/08/13 23:40:41;;;;;;;16.9;11.2;;;;;;;17.24;100;99032.62;;;;
2021/08/13 23:50:40;;;;;;;14;11.9;;;;;;;17.13;100;99045.09;;;;
